createdAt,value
2019-06-27T00:00:48.420Z,3.60
2019-06-27T00:01:48.432Z,3.50
2019-06-27T00:02:48.457Z,3.70
2019-06-27T00:03:48.384Z,3.40
2019-06-27T00:04:48.372Z,3.60
2019-06-27T00:05:48.362Z,3.40
2019-06-27T00:06:48.379Z,3.50
2019-06-27T00:07:48.343Z,3.20
2019-06-27T00:08:48.334Z,3.40
2019-06-27T00:09:48.318Z,3.30
2019-06-27T00:10:48.308Z,3.50
2019-06-27T00:11:48.325Z,3.30
2019-06-27T00:12:48.284Z,3.50
2019-06-27T00:13:48.274Z,3.20
2019-06-27T00:14:48.263Z,3.40
2019-06-27T00:15:48.255Z,3.50
2019-06-27T00:16:48.271Z,3.20
2019-06-27T00:17:48.229Z,3.90
2019-06-27T00:18:48.222Z,3.20
2019-06-27T00:19:48.208Z,3.60
2019-06-27T00:20:48.198Z,3.50
2019-06-27T00:21:48.215Z,3.10
2019-06-27T00:22:48.174Z,3.40
2019-06-27T00:23:48.166Z,3.50
2019-06-27T00:24:48.156Z,3.50
2019-06-27T00:25:48.173Z,3.50
2019-06-27T00:26:57.326Z,3.20
2019-06-27T00:27:49.119Z,3.20
2019-06-27T00:28:48.111Z,3.30
2019-06-27T00:29:48.099Z,3.10
2019-06-27T00:30:48.089Z,3.10
2019-06-27T00:31:48.077Z,3.50
2019-06-27T00:32:48.097Z,3.60
2019-06-27T00:33:48.056Z,3.50
2019-06-27T00:34:48.046Z,3.40
2019-06-27T00:35:48.033Z,3.30
2019-06-27T00:36:48.024Z,3.20
2019-06-27T00:37:48.040Z,3.20
2019-06-27T00:38:48.003Z,3.40
2019-06-27T00:39:47.990Z,3.30
2019-06-27T00:40:47.980Z,3.30
2019-06-27T00:41:47.970Z,3.80
2019-06-27T00:42:47.983Z,3.30
2019-06-27T00:43:47.946Z,3.30
2019-06-27T00:44:47.935Z,3.40
2019-06-27T00:45:47.927Z,3.80
2019-06-27T00:46:47.915Z,3.50
2019-06-27T00:47:47.930Z,3.40
2019-06-27T00:48:47.892Z,3.60
2019-06-27T00:49:47.882Z,3.50
2019-06-27T00:50:47.873Z,3.80
2019-06-27T00:51:47.860Z,4.00
2019-06-27T00:52:47.876Z,3.20
2019-06-27T00:53:47.838Z,3.50
2019-06-27T00:54:47.827Z,3.50
2019-06-27T00:55:47.819Z,3.60
2019-06-27T00:56:47.806Z,3.50
2019-06-27T00:57:47.821Z,3.60
2019-06-27T00:58:47.784Z,3.50
2019-06-27T00:59:47.772Z,3.70
2019-06-27T01:00:47.781Z,3.40
2019-06-27T01:01:47.753Z,3.70
2019-06-27T01:02:47.768Z,3.40
2019-06-27T01:03:47.730Z,3.60
2019-06-27T01:04:47.720Z,3.40
2019-06-27T01:05:47.709Z,3.60
2019-06-27T01:06:47.705Z,3.40
2019-06-27T01:07:47.735Z,3.50
2019-06-27T01:08:47.732Z,3.50
2019-06-27T01:09:47.665Z,3.40
2019-06-27T01:10:47.655Z,3.70
2019-06-27T01:11:47.642Z,3.40
2019-06-27T01:12:47.656Z,4.00
2019-06-27T01:13:47.620Z,3.60
2019-06-27T01:14:47.611Z,3.50
2019-06-27T01:15:47.603Z,3.60
2019-06-27T01:16:47.588Z,3.90
2019-06-27T01:17:47.604Z,3.60
2019-06-27T01:18:47.566Z,4.00
2019-06-27T01:19:47.555Z,3.70
2019-06-27T01:20:47.544Z,3.80
2019-06-27T01:21:47.534Z,4.00
2019-06-27T01:22:47.552Z,3.80
2019-06-27T01:23:47.514Z,3.50
2019-06-27T01:24:47.506Z,3.80
2019-06-27T01:25:47.491Z,4.10
2019-06-27T01:26:47.479Z,4.10
2019-06-27T01:27:47.499Z,4.00
2019-06-27T01:28:47.458Z,3.80
2019-06-27T01:29:47.447Z,3.60
2019-06-27T01:30:47.436Z,3.80
2019-06-27T01:31:47.425Z,3.90
2019-06-27T01:32:47.444Z,4.20
2019-06-27T01:33:47.406Z,3.90
2019-06-27T01:34:47.393Z,3.90
2019-06-27T01:35:47.383Z,4.00
2019-06-27T01:36:47.371Z,3.70
2019-06-27T01:37:47.386Z,3.90
2019-06-27T01:38:47.367Z,3.50
2019-06-27T01:39:47.372Z,3.90
2019-06-27T01:40:47.355Z,4.00
2019-06-27T01:41:47.319Z,3.70
2019-06-27T01:42:47.349Z,3.60
2019-06-27T01:43:47.297Z,3.50
2019-06-27T01:44:47.283Z,4.00
2019-06-27T01:45:47.273Z,3.60
2019-06-27T01:46:47.263Z,4.00
2019-06-27T01:47:47.279Z,3.40
2019-06-27T01:48:47.243Z,3.90
2019-06-27T01:49:47.229Z,3.70
2019-06-27T01:50:47.217Z,3.90
2019-06-27T01:51:47.210Z,3.80
2019-06-27T01:52:47.221Z,4.00
2019-06-27T01:53:47.184Z,3.60
2019-06-27T01:54:47.194Z,4.10
2019-06-27T01:55:47.161Z,3.60
2019-06-27T01:56:47.187Z,3.90
2019-06-27T01:57:47.479Z,3.60
2019-06-27T01:58:47.128Z,3.80
2019-06-27T01:59:47.116Z,3.80
2019-06-27T02:00:47.108Z,3.70
2019-06-27T02:01:47.094Z,3.90
2019-06-27T02:02:47.112Z,3.90
2019-06-27T02:03:47.094Z,3.60
2019-06-27T02:04:47.061Z,3.70
2019-06-27T02:05:47.051Z,4.10
2019-06-27T02:06:47.039Z,3.70
2019-06-27T02:07:47.059Z,4.10
2019-06-27T02:08:47.018Z,4.20
2019-06-27T02:09:47.006Z,4.40
2019-06-27T02:10:46.994Z,4.30
2019-06-27T02:11:46.984Z,3.80
2019-06-27T02:12:47.008Z,4.20
2019-06-27T02:13:46.962Z,4.20
2019-06-27T02:14:46.951Z,3.90
2019-06-27T02:15:46.939Z,4.20
2019-06-27T02:16:46.930Z,4.70
2019-06-27T02:17:46.947Z,3.70
2019-06-27T02:18:46.905Z,3.90
2019-06-27T02:19:46.899Z,4.40
2019-06-27T02:20:46.883Z,4.00
2019-06-27T02:21:46.873Z,4.00
2019-06-27T02:22:46.890Z,3.90
2019-06-27T02:23:46.850Z,4.40
2019-06-27T02:24:46.838Z,3.90
2019-06-27T02:25:46.826Z,4.30
2019-06-27T02:26:46.817Z,4.10
2019-06-27T02:28:02.577Z,4.40
2019-06-27T02:28:47.796Z,3.60
2019-06-27T02:29:46.784Z,3.70
2019-06-27T02:30:46.782Z,4.20
2019-06-27T02:31:46.759Z,3.90
2019-06-27T02:32:46.777Z,4.10
2019-06-27T02:33:46.739Z,4.30
2019-06-27T02:34:46.730Z,4.30
2019-06-27T02:35:46.720Z,4.10
2019-06-27T02:36:46.703Z,4.10
2019-06-27T02:37:46.741Z,4.00
2019-06-27T02:38:46.683Z,4.00
2019-06-27T02:39:46.683Z,3.90
2019-06-27T02:40:46.659Z,4.10
2019-06-27T02:41:46.650Z,3.80
2019-06-27T02:42:46.664Z,4.10
2019-06-27T02:43:46.637Z,4.00
2019-06-27T02:44:46.616Z,3.90
2019-06-27T02:45:46.673Z,4.10
2019-06-27T02:46:46.594Z,4.00
2019-06-27T02:47:46.615Z,3.70
2019-06-27T02:48:46.572Z,4.00
2019-06-27T02:49:49.942Z,4.40
2019-06-27T02:50:46.567Z,4.00
2019-06-27T02:51:46.537Z,4.50
2019-06-27T02:52:46.554Z,4.20
2019-06-27T02:53:46.524Z,4.40
2019-06-27T02:54:46.505Z,4.30
2019-06-27T02:55:46.497Z,4.40
2019-06-27T02:56:46.483Z,3.70
2019-06-27T02:57:46.501Z,4.40
2019-06-27T02:58:46.463Z,4.50
2019-06-27T02:59:46.451Z,4.30
2019-06-27T03:00:46.441Z,4.30
2019-06-27T03:01:46.427Z,4.60
2019-06-27T03:02:46.456Z,4.30
2019-06-27T03:03:46.404Z,4.50
2019-06-27T03:04:46.392Z,4.00
2019-06-27T03:05:46.387Z,5.00
2019-06-27T03:06:46.372Z,4.60
2019-06-27T03:07:46.362Z,4.50
2019-06-27T03:08:46.375Z,4.60
2019-06-27T03:09:46.336Z,4.20
2019-06-27T03:10:46.327Z,4.70
2019-06-27T03:11:46.322Z,4.30
2019-06-27T03:12:46.304Z,4.40
2019-06-27T03:13:46.328Z,4.10
2019-06-27T03:14:46.283Z,4.60
2019-06-27T03:15:46.271Z,4.90
2019-06-27T03:16:46.261Z,5.00
2019-06-27T03:17:46.250Z,4.80
2019-06-27T03:18:46.265Z,4.90
2019-06-27T03:19:46.233Z,5.10
2019-06-27T03:20:46.220Z,4.50
2019-06-27T03:21:46.236Z,4.80
2019-06-27T03:22:46.194Z,4.70
2019-06-27T03:23:46.210Z,5.00
2019-06-27T03:24:46.172Z,5.00
2019-06-27T03:25:46.162Z,5.00
2019-06-27T03:26:46.149Z,5.00
2019-06-27T03:27:46.139Z,4.60
2019-06-27T03:28:52.697Z,5.60
2019-06-27T03:29:47.117Z,5.40
2019-06-27T03:30:46.106Z,4.90
2019-06-27T03:31:46.098Z,5.20
2019-06-27T03:32:46.095Z,5.00
2019-06-27T03:33:46.284Z,4.80
2019-06-27T03:34:46.062Z,5.40
2019-06-27T03:35:46.067Z,5.40
2019-06-27T03:36:46.042Z,5.60
2019-06-27T03:37:46.032Z,5.30
2019-06-27T03:38:46.046Z,5.30
2019-06-27T03:39:46.007Z,4.90
2019-06-27T03:40:46.002Z,6.00
2019-06-27T03:41:45.990Z,4.80
2019-06-27T03:42:45.975Z,4.80
2019-06-27T03:43:45.990Z,5.20
2019-06-27T03:44:45.952Z,5.40
2019-06-27T03:45:45.941Z,5.70
2019-06-27T03:46:45.934Z,6.00
2019-06-27T03:47:45.919Z,5.70
2019-06-27T03:48:45.938Z,4.90
2019-06-27T03:49:45.905Z,5.50
2019-06-27T03:50:45.888Z,5.90
2019-06-27T03:51:45.874Z,6.00
2019-06-27T03:52:45.867Z,5.90
2019-06-27T03:53:45.894Z,6.20
2019-06-27T03:54:45.842Z,6.30
2019-06-27T03:55:45.832Z,5.50
2019-06-27T03:56:45.823Z,6.50
2019-06-27T03:57:45.818Z,6.40
2019-06-27T03:58:45.823Z,6.40
2019-06-27T03:59:45.796Z,6.70
2019-06-27T04:00:45.777Z,7.90
2019-06-27T04:01:45.766Z,7.60
2019-06-27T04:02:45.755Z,6.90
2019-06-27T04:03:45.772Z,8.20
2019-06-27T04:04:45.733Z,8.60
2019-06-27T04:05:45.725Z,8.40
2019-06-27T04:06:45.785Z,8.70
2019-06-27T04:07:45.698Z,7.60
2019-06-27T04:08:45.716Z,7.80
2019-06-27T04:09:45.678Z,8.50
2019-06-27T04:10:45.667Z,9.10
2019-06-27T04:11:45.658Z,7.90
2019-06-27T04:12:45.643Z,8.80
2019-06-27T04:13:45.659Z,9.00
2019-06-27T04:14:45.623Z,8.20
2019-06-27T04:15:45.609Z,8.50
2019-06-27T04:16:48.958Z,8.60
2019-06-27T04:17:45.589Z,8.30
2019-06-27T04:18:45.602Z,8.60
2019-06-27T04:19:45.579Z,9.00
2019-06-27T04:20:45.556Z,9.10
2019-06-27T04:21:45.546Z,9.80
2019-06-27T04:22:45.539Z,8.90
2019-06-27T04:23:45.550Z,9.00
2019-06-27T04:24:45.515Z,9.30
2019-06-27T04:25:45.506Z,8.50
2019-06-27T04:26:45.494Z,8.40
2019-06-27T04:27:45.479Z,9.30
2019-06-27T04:28:45.492Z,8.60
2019-06-27T04:29:45.459Z,9.30
2019-06-27T04:30:45.450Z,8.10
2019-06-27T04:31:45.437Z,8.40
2019-06-27T04:32:45.427Z,8.90
2019-06-27T04:33:45.438Z,9.20
2019-06-27T04:34:45.403Z,8.70
2019-06-27T04:35:45.396Z,8.70
2019-06-27T04:36:45.382Z,8.70
2019-06-27T04:37:45.373Z,8.50
2019-06-27T04:38:45.384Z,7.60
2019-06-27T04:39:45.346Z,8.40
2019-06-27T04:40:45.337Z,9.10
2019-06-27T04:41:45.327Z,8.70
2019-06-27T04:42:45.315Z,7.90
2019-06-27T04:43:45.332Z,8.20
2019-06-27T04:44:45.295Z,8.80
2019-06-27T04:45:45.282Z,8.40
2019-06-27T04:46:45.272Z,7.90
2019-06-27T04:47:45.262Z,7.60
2019-06-27T04:48:45.276Z,8.70
2019-06-27T04:49:45.244Z,8.70
2019-06-27T04:50:45.230Z,7.80
2019-06-27T04:51:45.220Z,7.90
2019-06-27T04:52:45.209Z,9.00
2019-06-27T04:53:45.222Z,8.70
2019-06-27T04:54:45.190Z,8.20
2019-06-27T04:55:45.180Z,8.50
2019-06-27T04:56:45.166Z,7.90
2019-06-27T04:57:45.157Z,8.80
2019-06-27T04:58:45.170Z,7.90
2019-06-27T04:59:53.138Z,9.50
2019-06-27T05:00:46.123Z,8.50
2019-06-27T05:01:45.111Z,9.10
2019-06-27T05:02:45.104Z,9.10
2019-06-27T05:03:45.115Z,9.10
2019-06-27T05:04:45.078Z,9.00
2019-06-27T05:05:45.069Z,8.90
2019-06-27T05:06:45.059Z,7.90
2019-06-27T05:07:45.049Z,8.30
2019-06-27T05:08:45.062Z,7.80
2019-06-27T05:09:45.024Z,8.90
2019-06-27T05:10:45.013Z,9.20
2019-06-27T05:11:45.004Z,9.00
2019-06-27T05:12:44.994Z,10.00
2019-06-27T05:13:45.004Z,8.00
2019-06-27T05:14:44.970Z,9.70
2019-06-27T05:15:44.985Z,9.30
2019-06-27T05:16:44.949Z,8.60
2019-06-27T05:17:44.936Z,7.50
2019-06-27T05:18:44.950Z,9.10
2019-06-27T05:19:44.913Z,9.60
2019-06-27T05:20:44.903Z,9.20
2019-06-27T05:21:44.894Z,9.10
2019-06-27T05:22:44.882Z,10.60
2019-06-27T05:23:44.896Z,9.20
2019-06-27T05:24:44.861Z,10.60
2019-06-27T05:25:44.851Z,9.80
2019-06-27T05:26:44.839Z,10.10
2019-06-27T05:27:44.851Z,9.60
2019-06-27T05:28:44.842Z,8.40
2019-06-27T05:29:44.808Z,8.80
2019-06-27T05:30:44.802Z,8.30
2019-06-27T05:31:44.787Z,9.50
2019-06-27T05:32:44.776Z,9.50
2019-06-27T05:33:44.791Z,8.20
2019-06-27T05:34:44.846Z,8.20
2019-06-27T05:35:44.744Z,8.70
2019-06-27T05:36:44.732Z,9.20
2019-06-27T05:37:44.742Z,8.30
2019-06-27T05:38:44.734Z,8.20
2019-06-27T05:39:44.705Z,7.90
2019-06-27T05:40:44.693Z,7.10
2019-06-27T05:41:44.686Z,7.40
2019-06-27T05:42:44.689Z,6.90
2019-06-27T05:43:44.683Z,7.60
2019-06-27T05:44:44.648Z,6.50
2019-06-27T05:45:44.637Z,7.50
2019-06-27T05:46:44.647Z,7.10
2019-06-27T05:47:44.625Z,7.10
2019-06-27T05:48:44.635Z,6.70
2019-06-27T05:49:44.597Z,7.00
2019-06-27T05:50:44.585Z,6.80
2019-06-27T05:51:44.585Z,6.40
2019-06-27T05:52:44.565Z,5.90
2019-06-27T05:53:45.718Z,7.00
2019-06-27T05:54:44.540Z,6.60
2019-06-27T05:55:44.536Z,6.80
2019-06-27T05:56:44.525Z,5.80
2019-06-27T05:57:44.513Z,6.90
2019-06-27T05:58:44.566Z,7.10
2019-06-27T05:59:44.528Z,7.20
2019-06-27T06:00:44.516Z,5.90
2019-06-27T06:01:44.506Z,6.00
2019-06-27T06:02:44.472Z,6.10
2019-06-27T06:03:44.461Z,6.00
2019-06-27T06:04:44.459Z,6.00
2019-06-27T06:05:44.434Z,6.00
2019-06-27T06:06:44.444Z,6.30
2019-06-27T06:07:44.424Z,5.60
2019-06-27T06:08:44.415Z,5.60
2019-06-27T06:09:44.380Z,5.80
2019-06-27T06:10:44.369Z,5.00
2019-06-27T06:11:44.364Z,6.00
2019-06-27T06:12:44.376Z,5.30
2019-06-27T06:13:44.341Z,5.30
2019-06-27T06:14:44.330Z,4.90
2019-06-27T06:15:44.317Z,5.70
2019-06-27T06:16:44.387Z,5.30
2019-06-27T06:17:44.378Z,5.30
2019-06-27T06:18:44.287Z,5.70
2019-06-27T06:19:44.298Z,5.70
2019-06-27T06:20:44.277Z,4.80
2019-06-27T06:21:44.257Z,5.30
2019-06-27T06:22:44.338Z,4.00
2019-06-27T06:23:44.246Z,5.60
2019-06-27T06:24:44.257Z,4.80
2019-06-27T06:25:44.449Z,5.90
2019-06-27T06:26:44.214Z,5.00
2019-06-27T06:27:44.217Z,4.70
2019-06-27T06:28:44.192Z,4.70
2019-06-27T06:29:44.171Z,4.60
2019-06-27T06:30:45.254Z,5.70
2019-06-27T06:31:44.155Z,5.00
2019-06-27T06:32:44.167Z,4.90
2019-06-27T06:33:44.159Z,4.40
2019-06-27T06:34:44.125Z,4.30
2019-06-27T06:35:44.154Z,4.70
2019-06-27T06:36:44.101Z,4.80
2019-06-27T06:37:44.111Z,4.30
2019-06-27T06:38:44.077Z,4.30
2019-06-27T06:39:44.073Z,4.80
2019-06-27T06:40:44.055Z,5.30
2019-06-27T06:41:44.047Z,3.50
2019-06-27T06:42:44.057Z,3.90
2019-06-27T06:43:44.027Z,4.30
2019-06-27T06:44:44.018Z,4.60
2019-06-27T06:45:44.007Z,4.40
2019-06-27T06:46:43.999Z,4.50
2019-06-27T06:47:44.061Z,3.70
2019-06-27T06:48:43.988Z,4.30
2019-06-27T06:49:43.963Z,4.20
2019-06-27T06:50:43.953Z,3.90
2019-06-27T06:51:43.954Z,3.90
2019-06-27T06:52:43.966Z,4.00
2019-06-27T06:53:43.922Z,4.20
2019-06-27T06:54:43.910Z,4.50
2019-06-27T06:55:43.905Z,5.00
2019-06-27T06:56:43.892Z,4.40
2019-06-27T06:57:43.929Z,5.20
2019-06-27T06:58:43.868Z,5.50
2019-06-27T06:59:43.860Z,4.10
2019-06-27T07:00:56.997Z,5.20
2019-06-27T07:01:45.838Z,4.90
2019-06-27T07:02:43.849Z,4.40
2019-06-27T07:03:43.889Z,4.40
2019-06-27T07:04:43.805Z,4.10
2019-06-27T07:05:43.795Z,4.00
2019-06-27T07:06:43.805Z,3.90
2019-06-27T07:07:43.797Z,3.80
2019-06-27T07:08:43.763Z,4.30
2019-06-27T07:09:43.756Z,3.50
2019-06-27T07:10:43.773Z,3.40
2019-06-27T07:11:43.736Z,3.60
2019-06-27T07:12:43.811Z,3.10
2019-06-27T07:13:43.720Z,3.20
2019-06-27T07:14:43.704Z,3.40
2019-06-27T07:15:43.704Z,3.10
2019-06-27T07:16:43.751Z,3.00
2019-06-27T07:17:43.801Z,2.60
2019-06-27T07:18:43.669Z,2.80
2019-06-27T07:19:43.650Z,3.00
2019-06-27T07:20:43.640Z,3.30
2019-06-27T07:21:44.169Z,3.20
2019-06-27T07:22:43.621Z,3.20
2019-06-27T07:23:43.638Z,3.10
2019-06-27T07:24:43.744Z,3.40
2019-06-27T07:25:43.592Z,2.80
2019-06-27T07:26:43.579Z,3.20
2019-06-27T07:27:43.570Z,3.40
2019-06-27T07:28:43.582Z,3.30
2019-06-27T07:29:43.549Z,3.20
2019-06-27T07:30:43.544Z,3.30
2019-06-27T07:31:43.537Z,3.60
2019-06-27T07:32:43.521Z,3.20
2019-06-27T07:33:43.531Z,3.30
2019-06-27T07:34:43.527Z,3.50
2019-06-27T07:35:43.486Z,3.40
2019-06-27T07:36:43.477Z,3.40
2019-06-27T07:37:43.499Z,3.50
2019-06-27T07:38:46.936Z,3.40
2019-06-27T07:39:43.450Z,3.60
2019-06-27T07:40:43.435Z,3.40
2019-06-27T07:41:43.424Z,3.60
2019-06-27T07:42:43.419Z,3.50
2019-06-27T07:43:43.437Z,3.40
2019-06-27T07:44:43.452Z,3.80
2019-06-27T07:45:43.383Z,3.50
2019-06-27T07:46:43.381Z,3.50
2019-06-27T07:47:43.365Z,3.90
2019-06-27T07:48:43.362Z,3.60
2019-06-27T07:49:43.368Z,3.70
2019-06-27T07:50:43.332Z,3.50
2019-06-27T07:51:43.323Z,3.80
2019-06-27T07:52:43.315Z,3.60
2019-06-27T07:53:43.302Z,3.50
2019-06-27T07:54:43.317Z,3.50
2019-06-27T07:55:43.285Z,4.20
2019-06-27T07:56:46.214Z,3.20
2019-06-27T07:57:43.261Z,3.00
2019-06-27T07:58:43.252Z,3.30
2019-06-27T07:59:43.262Z,3.20
2019-06-27T08:00:43.243Z,3.20
2019-06-27T08:01:43.225Z,3.40
2019-06-27T08:02:43.210Z,3.10
2019-06-27T08:03:43.200Z,3.40
2019-06-27T08:04:43.217Z,3.30
2019-06-27T08:05:43.185Z,3.10
2019-06-27T08:06:43.176Z,3.40
2019-06-27T08:07:43.171Z,3.10
2019-06-27T08:08:43.148Z,3.10
2019-06-27T08:09:43.160Z,3.10
2019-06-27T08:10:43.131Z,4.20
2019-06-27T08:11:43.118Z,3.50
2019-06-27T08:12:43.107Z,3.40
2019-06-27T08:13:43.100Z,3.70
2019-06-27T08:14:43.129Z,3.70
2019-06-27T08:15:43.112Z,3.70
2019-06-27T08:16:43.066Z,4.10
2019-06-27T08:17:43.065Z,4.30
2019-06-27T08:18:43.088Z,3.70
2019-06-27T08:19:43.037Z,3.50
2019-06-27T08:20:43.048Z,3.50
2019-06-27T08:21:43.016Z,3.80
2019-06-27T08:22:43.011Z,2.90
2019-06-27T08:23:43.043Z,3.40
2019-06-27T08:24:42.986Z,3.40
2019-06-27T08:25:43.053Z,3.10
2019-06-27T08:26:42.979Z,4.90
2019-06-27T08:27:43.049Z,5.50
2019-06-27T08:28:42.947Z,4.10
2019-06-27T08:29:42.964Z,4.20
2019-06-27T08:30:42.938Z,3.90
2019-06-27T08:31:51.412Z,3.90
2019-06-27T08:32:43.909Z,3.30
2019-06-27T08:33:42.902Z,3.20
2019-06-27T08:34:43.021Z,3.70
2019-06-27T08:35:42.874Z,3.10
2019-06-27T08:36:42.865Z,4.00
2019-06-27T08:37:42.857Z,3.00
2019-06-27T08:38:42.843Z,2.90
2019-06-27T08:39:42.928Z,2.90
2019-06-27T08:40:42.838Z,2.80
2019-06-27T08:41:42.815Z,2.30
2019-06-27T08:42:42.802Z,2.30
2019-06-27T08:43:42.794Z,2.50
2019-06-27T08:44:42.806Z,2.20
2019-06-27T08:45:42.770Z,2.60
2019-06-27T08:46:42.761Z,3.10
2019-06-27T08:47:42.821Z,3.00
2019-06-27T08:48:42.741Z,3.30
2019-06-27T08:49:42.758Z,3.40
2019-06-27T08:50:42.719Z,3.20
2019-06-27T08:51:42.710Z,3.30
2019-06-27T08:52:42.701Z,3.20
2019-06-27T08:53:42.689Z,3.00
2019-06-27T08:54:42.707Z,3.10
2019-06-27T08:55:42.675Z,2.60
2019-06-27T08:56:43.104Z,2.60
2019-06-27T08:57:42.649Z,2.40
2019-06-27T08:58:42.637Z,2.60
2019-06-27T08:59:42.651Z,2.20
2019-06-27T09:00:45.750Z,2.40
2019-06-27T09:01:42.639Z,2.30
2019-06-27T09:02:42.600Z,2.20
2019-06-27T09:03:42.653Z,2.50
2019-06-27T09:04:42.581Z,2.30
2019-06-27T09:05:42.565Z,2.40
2019-06-27T09:06:42.584Z,2.40
2019-06-27T09:07:42.546Z,2.50
2019-06-27T09:08:42.533Z,2.30
2019-06-27T09:09:42.526Z,2.50
2019-06-27T09:10:42.518Z,2.60
2019-06-27T09:11:42.526Z,2.80
2019-06-27T09:12:42.495Z,2.80
2019-06-27T09:13:42.503Z,3.60
2019-06-27T09:14:42.517Z,2.80
2019-06-27T09:15:42.556Z,3.00
2019-06-27T09:16:46.447Z,2.90
2019-06-27T09:17:42.516Z,2.70
2019-06-27T09:18:42.507Z,3.10
2019-06-27T09:19:44.162Z,2.60
2019-06-27T09:20:42.681Z,2.80
2019-06-27T09:21:43.264Z,3.00
2019-06-27T09:22:42.669Z,3.00
2019-06-27T09:23:42.387Z,2.80
2019-06-27T09:24:42.416Z,2.80
2019-06-27T09:25:42.543Z,2.90
2019-06-27T09:26:42.406Z,3.20
2019-06-27T09:27:42.513Z,3.00
2019-06-27T09:28:42.359Z,2.60
2019-06-27T09:29:42.393Z,3.00
2019-06-27T09:30:42.374Z,2.70
2019-06-27T09:31:42.320Z,2.90
2019-06-27T09:32:42.286Z,2.60
2019-06-27T09:33:42.320Z,3.10
2019-06-27T09:34:42.279Z,2.40
2019-06-27T09:35:42.258Z,2.20
2019-06-27T09:36:42.350Z,2.60
2019-06-27T09:37:42.239Z,2.40
2019-06-27T09:38:42.243Z,2.70
2019-06-27T09:39:42.214Z,2.10
2019-06-27T09:40:42.204Z,2.30
2019-06-27T09:41:42.264Z,2.20
2019-06-27T09:42:42.183Z,1.90
2019-06-27T09:43:42.175Z,1.90
2019-06-27T09:44:42.411Z,1.90
2019-06-27T09:45:42.154Z,2.00
2019-06-27T09:46:42.166Z,2.40
2019-06-27T09:47:42.134Z,2.20
2019-06-27T09:48:42.124Z,1.90
2019-06-27T09:49:42.185Z,1.80
2019-06-27T09:50:42.102Z,1.70
2019-06-27T09:51:42.146Z,1.60
2019-06-27T09:52:42.082Z,1.80
2019-06-27T09:53:42.127Z,1.90
2019-06-27T09:54:42.063Z,1.80
2019-06-27T09:55:42.068Z,2.00
2019-06-27T09:56:42.041Z,1.80
2019-06-27T09:57:42.161Z,1.40
2019-06-27T09:58:42.019Z,1.40
2019-06-27T09:59:42.009Z,1.50
2019-06-27T10:00:42.000Z,1.60
2019-06-27T10:01:41.990Z,2.00
2019-06-27T10:02:42.945Z,2.10
2019-06-27T10:03:41.969Z,2.00
2019-06-27T10:04:41.978Z,2.10
2019-06-27T10:05:41.951Z,1.80
2019-06-27T10:06:42.040Z,1.30
2019-06-27T10:07:41.984Z,1.50
2019-06-27T10:08:41.918Z,1.70
2019-06-27T10:09:41.907Z,1.70
2019-06-27T10:10:41.935Z,1.40
2019-06-27T10:11:41.891Z,1.50
2019-06-27T10:12:43.304Z,1.60
2019-06-27T10:13:41.869Z,1.70
2019-06-27T10:14:41.861Z,1.90
2019-06-27T10:15:41.862Z,2.10
2019-06-27T10:16:41.836Z,1.60
2019-06-27T10:17:41.851Z,1.90
2019-06-27T10:18:41.816Z,2.70
2019-06-27T10:19:41.805Z,2.80
2019-06-27T10:20:41.794Z,2.10
2019-06-27T10:21:41.783Z,1.90
2019-06-27T10:22:41.832Z,1.90
2019-06-27T10:23:41.788Z,1.50
2019-06-27T10:24:41.754Z,1.40
2019-06-27T10:25:41.745Z,1.60
2019-06-27T10:26:41.735Z,1.90
2019-06-27T10:27:41.802Z,1.80
2019-06-27T10:28:41.712Z,1.50
2019-06-27T10:29:41.702Z,1.40
2019-06-27T10:30:41.705Z,1.50
2019-06-27T10:31:41.700Z,1.70
2019-06-27T10:32:57.777Z,1.30
2019-06-27T10:33:42.661Z,1.10
2019-06-27T10:34:41.651Z,1.10
2019-06-27T10:35:41.689Z,0.90
2019-06-27T10:36:41.630Z,1.00
2019-06-27T10:37:41.620Z,0.80
2019-06-27T10:38:41.609Z,0.80
2019-06-27T10:39:41.614Z,1.30
2019-06-27T10:40:41.615Z,1.60
2019-06-27T10:41:41.580Z,1.70
2019-06-27T10:42:41.810Z,1.80
2019-06-27T10:43:41.561Z,1.30
2019-06-27T10:44:41.562Z,1.30
2019-06-27T10:45:41.567Z,1.20
2019-06-27T10:46:41.530Z,0.90
2019-06-27T10:47:41.557Z,0.80
2019-06-27T10:48:41.514Z,0.70
2019-06-27T10:49:41.500Z,0.80
2019-06-27T10:50:41.494Z,0.70
2019-06-27T10:51:41.477Z,0.80
2019-06-27T10:52:41.480Z,0.70
2019-06-27T10:53:41.482Z,0.70
2019-06-27T10:54:41.449Z,0.60
2019-06-27T10:55:41.446Z,0.60
2019-06-27T10:56:41.427Z,1.30
2019-06-27T10:57:41.416Z,1.50
2019-06-27T10:58:41.429Z,1.60
2019-06-27T10:59:41.414Z,1.50
2019-06-27T11:00:41.427Z,1.40
2019-06-27T11:01:41.390Z,1.90
2019-06-27T11:02:41.377Z,1.70
2019-06-27T11:03:41.379Z,1.80
2019-06-27T11:04:41.376Z,1.60
2019-06-27T11:05:41.360Z,1.60
2019-06-27T11:06:41.323Z,1.90
2019-06-27T11:07:41.393Z,1.60
2019-06-27T11:08:41.330Z,1.50
2019-06-27T11:09:41.295Z,2.00
2019-06-27T11:10:41.307Z,1.70
2019-06-27T11:11:41.272Z,1.80
2019-06-27T11:12:44.864Z,1.60
2019-06-27T11:13:57.652Z,2.00
2019-06-27T11:14:58.046Z,2.30
2019-06-27T11:15:42.240Z,1.70
2019-06-27T11:16:41.224Z,1.60
2019-06-27T11:17:41.221Z,1.70
2019-06-27T11:18:41.225Z,2.00
2019-06-27T11:19:52.063Z,1.80
2019-06-27T11:20:42.180Z,1.90
2019-06-27T11:21:41.173Z,1.50
2019-06-27T11:22:41.171Z,1.70
2019-06-27T11:23:41.195Z,2.00
2019-06-27T11:24:41.146Z,1.50
2019-06-27T11:25:41.134Z,1.80
2019-06-27T11:26:41.119Z,1.60
2019-06-27T11:27:41.115Z,1.50
2019-06-27T11:28:41.124Z,1.80
2019-06-27T11:29:41.086Z,1.80
2019-06-27T11:30:41.078Z,1.60
2019-06-27T11:31:41.071Z,1.70
2019-06-27T11:32:41.063Z,1.70
2019-06-27T11:33:41.071Z,1.70
2019-06-27T11:34:41.036Z,1.60
2019-06-27T11:35:41.027Z,2.00
2019-06-27T11:36:41.043Z,1.80
2019-06-27T11:37:41.005Z,1.70
2019-06-27T11:38:40.994Z,1.80
2019-06-27T11:39:40.986Z,1.80
2019-06-27T11:40:40.977Z,2.00
2019-06-27T11:41:41.001Z,1.60
2019-06-27T11:42:40.955Z,1.60
2019-06-27T11:43:40.944Z,1.70
2019-06-27T11:44:40.935Z,1.90
2019-06-27T11:45:40.928Z,1.40
2019-06-27T11:46:40.939Z,1.60
2019-06-27T11:47:40.903Z,1.10
2019-06-27T11:48:40.892Z,1.60
2019-06-27T11:49:40.884Z,1.60
2019-06-27T11:50:40.882Z,1.60
2019-06-27T11:51:40.889Z,1.50
2019-06-27T11:52:40.854Z,1.20
2019-06-27T11:53:40.856Z,1.60
2019-06-27T11:54:40.835Z,1.40
2019-06-27T11:55:40.820Z,1.40
2019-06-27T11:56:40.845Z,1.40
2019-06-27T11:57:40.801Z,1.40
2019-06-27T11:58:40.799Z,1.60
2019-06-27T11:59:40.779Z,1.50
2019-06-27T12:00:40.770Z,1.70
2019-06-27T12:01:40.786Z,1.50
2019-06-27T12:02:40.758Z,1.20
2019-06-27T12:03:49.217Z,1.40
2019-06-27T12:04:41.727Z,1.30
2019-06-27T12:05:40.717Z,1.40
2019-06-27T12:06:40.734Z,1.30
2019-06-27T12:07:40.698Z,1.20
2019-06-27T12:08:40.686Z,1.10
2019-06-27T12:09:40.687Z,1.40
2019-06-27T12:10:40.667Z,1.00
2019-06-27T12:11:40.680Z,1.10
2019-06-27T12:12:40.648Z,1.60
2019-06-27T12:13:40.642Z,1.50
2019-06-27T12:14:40.711Z,1.40
2019-06-27T12:15:40.613Z,1.40
2019-06-27T12:16:40.627Z,1.20
2019-06-27T12:17:40.592Z,1.00
2019-06-27T12:18:40.582Z,1.20
2019-06-27T12:19:40.577Z,0.80
2019-06-27T12:20:40.562Z,1.00
2019-06-27T12:21:40.583Z,1.00
2019-06-27T12:22:40.547Z,1.00
2019-06-27T12:23:40.537Z,1.10
2019-06-27T12:24:40.520Z,1.00
2019-06-27T12:25:40.511Z,1.30
2019-06-27T12:26:40.524Z,1.00
2019-06-27T12:27:40.492Z,0.80
2019-06-27T12:28:40.479Z,1.00
2019-06-27T12:29:40.469Z,0.80
2019-06-27T12:30:40.460Z,1.00
2019-06-27T12:31:40.472Z,0.90
2019-06-27T12:32:50.933Z,0.80
2019-06-27T12:33:41.427Z,0.70
2019-06-27T12:34:40.478Z,0.80
2019-06-27T12:35:40.413Z,0.70
2019-06-27T12:36:40.424Z,0.60
2019-06-27T12:37:40.385Z,0.80
2019-06-27T12:38:40.377Z,0.60
2019-06-27T12:39:40.366Z,0.50
2019-06-27T12:40:40.357Z,0.50
2019-06-27T12:41:40.384Z,0.60
2019-06-27T12:42:40.341Z,0.50
2019-06-27T12:43:40.326Z,0.50
2019-06-27T12:44:40.317Z,0.60
2019-06-27T12:45:40.304Z,0.50
2019-06-27T12:46:40.321Z,0.50
2019-06-27T12:47:40.285Z,0.50
2019-06-27T12:48:40.273Z,0.40
2019-06-27T12:49:56.987Z,0.60
2019-06-27T12:50:41.255Z,0.50
2019-06-27T12:51:40.270Z,0.40
2019-06-27T12:52:40.232Z,0.40
2019-06-27T12:53:40.223Z,0.50
2019-06-27T12:54:40.215Z,0.30
2019-06-27T12:55:40.230Z,0.40
2019-06-27T12:56:40.303Z,0.40
2019-06-27T12:57:40.186Z,0.50
2019-06-27T12:58:40.175Z,0.30
2019-06-27T12:59:40.162Z,0.40
2019-06-27T13:00:40.152Z,0.50
2019-06-27T13:01:40.173Z,0.30
2019-06-27T13:02:40.132Z,0.40
2019-06-27T13:03:40.125Z,0.50
2019-06-27T13:04:40.120Z,0.50
2019-06-27T13:05:40.125Z,0.60
2019-06-27T13:06:40.096Z,0.50
2019-06-27T13:07:40.081Z,0.50
2019-06-27T13:08:40.074Z,0.40
2019-06-27T13:09:40.063Z,0.60
2019-06-27T13:10:40.074Z,0.60
2019-06-27T13:11:40.041Z,0.60
2019-06-27T13:12:40.030Z,0.50
2019-06-27T13:13:40.020Z,0.60
2019-06-27T13:14:40.012Z,0.60
2019-06-27T13:15:40.040Z,0.60
2019-06-27T13:16:39.990Z,0.50
2019-06-27T13:17:39.993Z,0.70
2019-06-27T13:18:39.970Z,0.70